Time;durP1;ratioP1;P1;durP2;ratioP2;P2;SDS_P1;SDS_P2;PMS_P1;PMS_P2;Temp;Humidity;BMP_temperature;BMP_pressure;BME280_temperature;BME280_humidity;BME280_pressure;Samples;Min_cycle;Max_cycle;Signal;HPM_P1;HPM_P2
2022/09/21 00:00:25;;;;;;;3.38;3.13;;;23.60;61.90;;;;;;5083446;28;20048;-40
2022/09/21 00:02:54;;;;;;;3.38;3.17;;;23.60;61.40;;;;;;5083095;28;20084;-40
2022/09/21 00:05:20;;;;;;;3.30;3.05;;;23.50;61.10;;;;;;5081037;28;20472;-40
2022/09/21 00:07:46;;;;;;;3.38;3.17;;;23.50;61.00;;;;;;5082587;28;20100;-47
2022/09/21 00:10:12;;;;;;;5.13;3.25;;;23.50;60.90;;;;;;5082827;28;20150;-47
2022/09/21 00:12:39;;;;;;;3.42;3.20;;;23.50;61.20;;;;;;5082444;28;20024;-52
2022/09/21 00:15:09;;;;;;;3.10;2.90;;;23.50;61.40;;;;;;5082692;28;20028;-51
2022/09/21 00:17:36;;;;;;;3.33;2.97;;;23.50;61.20;;;;;;5081796;28;20032;-52
2022/09/21 00:20:05;;;;;;;3.25;3.05;;;23.50;61.30;;;;;;5095120;28;20032;-51
2022/09/21 00:22:32;;;;;;;3.40;3.10;;;23.50;61.10;;;;;;5102965;28;20043;-53
2022/09/21 00:24:58;;;;;;;3.20;3.00;;;23.50;61.10;;;;;;5075976;28;20043;-50
2022/09/21 00:27:28;;;;;;;3.10;2.90;;;23.50;61.10;;;;;;5067068;28;20028;-48
2022/09/21 00:29:59;;;;;;;3.20;3.00;;;23.50;61.30;;;;;;5089896;28;20028;-53
2022/09/21 00:32:26;;;;;;;3.20;3.00;;;23.50;61.10;;;;;;5095210;28;20067;-52
2022/09/21 00:34:52;;;;;;;3.33;3.13;;;23.50;61.20;;;;;;5082186;28;20037;-52
2022/09/21 00:37:21;;;;;;;3.40;3.20;;;23.40;61.10;;;;;;5082928;28;20039;-48
2022/09/21 00:39:47;;;;;;;4.13;2.80;;;23.40;61.00;;;;;;5065597;28;20041;-40
2022/09/21 00:42:20;;;;;;;3.60;3.30;;;23.40;61.10;;;;;;5062504;28;20028;-40
2022/09/21 00:44:47;;;;;;;3.20;3.00;;;23.30;59.90;;;;;;5044349;28;20063;-40
2022/09/21 00:47:18;;;;;;;3.27;3.00;;;23.30;59.70;;;;;;5063184;28;20143;-40
2022/09/21 00:49:48;;;;;;;2.80;2.60;;;23.20;59.40;;;;;;5042678;28;20133;-40
2022/09/21 00:52:15;;;;;;;3.08;2.78;;;23.20;59.30;;;;;;5042625;28;20026;-39
2022/09/21 00:54:43;;;;;;;3.20;3.00;;;23.20;59.20;;;;;;5036718;28;20044;-40
2022/09/21 00:57:10;;;;;;;3.65;3.35;;;23.10;59.10;;;;;;5008275;28;20081;-39
2022/09/21 00:59:37;;;;;;;3.10;2.90;;;23.10;59.20;;;;;;5049186;28;20025;-40
2022/09/21 01:02:03;;;;;;;3.00;2.80;;;23.10;59.30;;;;;;5061942;28;20158;-40
2022/09/21 01:04:30;;;;;;;3.17;2.97;;;23.10;59.30;;;;;;5062363;28;20040;-39
2022/09/21 01:06:57;;;;;;;3.20;3.00;;;23.10;59.30;;;;;;5024446;28;20036;-46
2022/09/21 01:09:23;;;;;;;3.63;3.33;;;23.10;59.50;;;;;;5038713;28;20103;-43
2022/09/21 01:12:10;;;;;;;3.08;2.88;;;23.10;59.70;;;;;;5027760;28;20029;-41
2022/09/21 01:14:46;;;;;;;3.20;3.00;;;23.10;59.30;;;;;;5032582;28;20060;-42
2022/09/21 01:17:38;;;;;;;3.10;2.90;;;23.10;59.60;;;;;;5070296;28;20058;-41
2022/09/21 01:20:19;;;;;;;3.20;3.00;;;23.10;59.90;;;;;;5042687;28;20026;-42
2022/09/21 01:22:51;;;;;;;3.00;2.80;;;23.10;60.00;;;;;;5074032;28;20042;-42
2022/09/21 01:25:39;;;;;;;3.50;3.20;;;23.10;60.20;;;;;;5034163;28;20022;-42
2022/09/21 01:28:25;;;;;;;3.00;2.80;;;23.00;60.10;;;;;;5053021;28;20053;-41
2022/09/21 01:30:52;;;;;;;3.65;3.10;;;23.00;60.30;;;;;;5044474;28;20040;-41
2022/09/21 01:33:22;;;;;;;3.22;3.03;;;23.00;60.60;;;;;;5073412;28;20064;-41
2022/09/21 01:35:53;;;;;;;3.30;3.10;;;23.00;60.60;;;;;;5081584;28;20123;-41
2022/09/21 01:38:28;;;;;;;3.10;2.90;;;22.90;60.30;;;;;;5059738;28;20029;-40
2022/09/21 01:41:02;;;;;;;3.30;3.00;;;22.90;60.30;;;;;;5045192;28;20036;-40
2022/09/21 01:43:39;;;;;;;3.38;3.15;;;22.90;60.10;;;;;;5043233;28;20029;-40
2022/09/21 01:46:08;;;;;;;3.28;3.03;;;22.90;60.00;;;;;;5050838;28;20039;-40
2022/09/21 01:48:36;;;;;;;3.70;3.40;;;22.90;60.80;;;;;;5033409;28;20060;-41
2022/09/21 01:51:05;;;;;;;3.50;3.30;;;22.80;62.00;;;;;;5042058;28;20116;-41
2022/09/21 01:53:48;;;;;;;3.30;3.10;;;22.80;61.60;;;;;;5034650;28;20036;-42
2022/09/21 01:56:27;;;;;;;3.22;3.03;;;22.80;61.60;;;;;;5061512;28;20063;-41
2022/09/21 01:59:21;;;;;;;3.35;3.05;;;22.80;61.50;;;;;;5053710;28;20037;-39
2022/09/21 02:01:58;;;;;;;2.97;2.78;;;22.80;61.50;;;;;;5061203;28;20025;-40
2022/09/21 02:04:24;;;;;;;3.95;3.00;;;22.70;60.50;;;;;;5060793;28;20033;-40
2022/09/21 02:06:50;;;;;;;3.42;3.22;;;22.70;60.20;;;;;;5064761;28;20034;-40
2022/09/21 02:09:16;;;;;;;3.05;2.85;;;22.70;59.80;;;;;;5068764;28;20036;-40
2022/09/21 02:11:43;;;;;;;3.10;2.90;;;22.70;59.70;;;;;;5067102;28;20040;-40
2022/09/21 02:14:15;;;;;;;3.92;2.72;;;22.70;59.50;;;;;;5072451;28;20041;-40
2022/09/21 02:16:53;;;;;;;3.10;2.90;;;22.60;58.90;;;;;;5061421;28;20036;-40
2022/09/21 02:19:23;;;;;;;3.13;2.92;;;22.60;59.30;;;;;;5044999;28;20052;-40
2022/09/21 02:22:06;;;;;;;3.22;3.03;;;22.60;59.10;;;;;;5059631;28;20080;-40
2022/09/21 02:24:56;;;;;;;3.30;3.10;;;22.50;58.90;;;;;;5042814;28;20574;-40
2022/09/21 02:27:54;;;;;;;3.03;2.83;;;22.50;58.90;;;;;;5043799;28;20060;-40
2022/09/21 02:30:21;;;;;;;3.00;2.80;;;22.50;58.90;;;;;;5061760;28;20028;-40
2022/09/21 02:33:20;;;;;;;3.10;2.90;;;22.40;58.80;;;;;;5061409;28;20084;-41
2022/09/21 02:35:57;;;;;;;3.00;2.80;;;22.40;58.70;;;;;;5079856;28;20055;-40
2022/09/21 02:38:34;;;;;;;3.10;2.90;;;22.40;58.70;;;;;;5076836;28;20059;-41
2022/09/21 02:41:23;;;;;;;3.15;2.90;;;22.30;58.70;;;;;;5064328;28;20037;-40
2022/09/21 02:43:50;;;;;;;;;;;22.30;58.70;;;;;;5065733;28;20055;-40
2022/09/21 02:46:32;;;;;;;3.22;2.92;;;22.30;58.60;;;;;;5082226;28;20339;-40
2022/09/21 02:49:18;;;;;;;3.35;3.05;;;22.20;58.70;;;;;;5082940;28;20033;-40
2022/09/21 02:51:46;;;;;;;2.75;2.55;;;22.20;58.70;;;;;;5069094;28;20032;-40
2022/09/21 02:54:14;;;;;;;3.13;2.92;;;22.20;58.60;;;;;;5080505;28;20040;-40
2022/09/21 02:56:41;;;;;;;3.28;3.08;;;22.10;58.60;;;;;;5084264;28;20472;-41
2022/09/21 02:59:07;;;;;;;3.10;2.90;;;22.10;58.60;;;;;;5083033;28;20795;-40
2022/09/21 03:01:33;;;;;;;2.83;2.63;;;22.10;58.70;;;;;;5084310;28;20119;-40
2022/09/21 03:03:59;;;;;;;3.08;2.88;;;22.00;58.60;;;;;;5083864;28;20047;-41
2022/09/21 03:06:25;;;;;;;2.97;2.78;;;22.00;58.60;;;;;;5084047;28;20032;-40
2022/09/21 03:08:51;;;;;;;3.08;2.88;;;22.00;58.70;;;;;;5084696;28;20025;-40
2022/09/21 03:11:18;;;;;;;3.63;3.33;;;21.90;58.60;;;;;;5084920;28;20029;-40
2022/09/21 03:13:44;;;;;;;2.80;2.60;;;21.90;58.70;;;;;;5079819;28;20036;-40
2022/09/21 03:16:12;;;;;;;3.63;3.33;;;21.90;58.70;;;;;;5064462;28;20025;-40
2022/09/21 03:18:39;;;;;;;2.80;2.60;;;21.80;58.60;;;;;;5075715;28;20069;-41
2022/09/21 03:21:05;;;;;;;3.40;3.10;;;21.80;58.70;;;;;;5085096;28;20024;-40
2022/09/21 03:23:31;;;;;;;3.15;2.95;;;21.80;58.60;;;;;;5077112;28;20036;-40
2022/09/21 03:25:57;;;;;;;2.85;2.65;;;21.80;58.60;;;;;;5079505;28;20040;-41
2022/09/21 03:28:24;;;;;;;3.40;3.13;;;21.70;58.60;;;;;;5084080;28;20397;-40
2022/09/21 03:30:50;;;;;;;3.20;3.00;;;21.70;58.60;;;;;;5084723;28;20088;-40
2022/09/21 03:33:18;;;;;;;3.07;2.87;;;21.70;58.60;;;;;;5099053;28;20048;-40
2022/09/21 03:35:44;;;;;;;3.22;3.03;;;21.60;58.60;;;;;;5104769;28;20096;-41
2022/09/21 03:38:10;;;;;;;3.60;3.30;;;21.60;58.60;;;;;;5082539;28;20085;-40
2022/09/21 03:40:36;;;;;;;3.20;3.00;;;21.50;58.70;;;;;;5064520;28;20021;-39
2022/09/21 03:43:03;;;;;;;3.10;2.90;;;21.60;58.70;;;;;;5064047;28;20040;-40
2022/09/21 03:45:29;;;;;;;3.10;2.90;;;21.50;58.60;;;;;;5073011;28;20028;-40
2022/09/21 03:47:58;;;;;;;3.17;2.97;;;21.50;58.70;;;;;;5068814;28;20123;-40
2022/09/21 03:50:27;;;;;;;3.00;2.80;;;21.50;58.70;;;;;;5080130;28;20016;-39
2022/09/21 03:52:53;;;;;;;3.03;2.83;;;21.40;58.60;;;;;;5065921;28;20113;-41
2022/09/21 03:55:20;;;;;;;2.97;2.77;;;21.40;58.70;;;;;;5082611;28;20078;-40
2022/09/21 03:57:46;;;;;;;3.33;3.13;;;21.40;58.60;;;;;;5083399;28;20040;-40
2022/09/21 04:00:12;;;;;;;3.00;2.80;;;21.30;58.70;;;;;;5084072;28;20135;-40
2022/09/21 04:02:39;;;;;;;3.10;2.90;;;21.30;58.60;;;;;;5084033;28;20736;-40
2022/09/21 04:05:07;;;;;;;3.05;2.85;;;21.30;58.70;;;;;;5093904;28;20040;-40
2022/09/21 04:07:33;;;;;;;2.90;2.70;;;21.20;58.60;;;;;;5090263;28;20032;-40
2022/09/21 04:10:00;;;;;;;2.80;2.60;;;21.20;58.70;;;;;;5083849;28;20035;-40
2022/09/21 04:12:26;;;;;;;;;;;21.10;58.60;;;;;;5083864;28;20044;-40
2022/09/21 04:14:52;;;;;;;2.95;2.75;;;21.10;58.70;;;;;;5069804;28;19951;-40
2022/09/21 04:17:19;;;;;;;2.80;2.60;;;21.10;58.70;;;;;;5063213;28;20119;-40
2022/09/21 04:19:45;;;;;;;3.50;3.20;;;21.00;58.70;;;;;;5064368;28;20032;-41
2022/09/21 04:22:11;;;;;;;2.90;2.70;;;21.00;58.90;;;;;;5083516;28;20047;-41
2022/09/21 04:24:39;;;;;;;3.47;3.20;;;20.90;58.90;;;;;;5079251;28;20033;-41
2022/09/21 04:27:07;;;;;;;3.22;3.03;;;20.90;58.90;;;;;;5063095;28;20013;-40
2022/09/21 04:29:33;;;;;;;3.10;2.90;;;20.90;59.00;;;;;;5063408;28;20040;-41
2022/09/21 04:31:59;;;;;;;3.20;3.00;;;20.80;59.00;;;;;;5059162;28;20168;-41
2022/09/21 04:34:25;;;;;;;3.10;2.90;;;20.70;58.90;;;;;;5043266;28;20594;-41
2022/09/21 04:36:53;;;;;;;3.22;3.03;;;20.70;59.00;;;;;;5043493;28;20025;-42
2022/09/21 04:39:19;;;;;;;3.08;2.85;;;20.70;59.00;;;;;;5043043;28;20092;-42
2022/09/21 04:41:46;;;;;;;3.25;3.05;;;20.60;59.10;;;;;;5042981;28;20021;-42
2022/09/21 04:44:12;;;;;;;3.13;2.92;;;20.60;59.10;;;;;;5044954;28;20049;-43
2022/09/21 04:46:38;;;;;;;3.05;2.80;;;20.60;59.10;;;;;;5061878;28;20024;-40
2022/09/21 04:49:05;;;;;;;2.75;2.55;;;20.50;59.10;;;;;;5062228;28;20025;-40
2022/09/21 04:51:31;;;;;;;3.08;2.88;;;20.50;59.10;;;;;;5062846;28;20033;-40
2022/09/21 04:53:58;;;;;;;3.00;2.80;;;20.50;59.10;;;;;;5062730;28;20048;-40
2022/09/21 04:56:24;;;;;;;2.90;2.70;;;20.40;59.10;;;;;;5054276;28;20705;-41
2022/09/21 04:58:50;;;;;;;3.05;2.85;;;20.40;59.20;;;;;;5062468;28;20140;-40
2022/09/21 05:01:16;;;;;;;2.83;2.63;;;20.40;59.20;;;;;;5063982;28;20025;-41
2022/09/21 05:03:42;;;;;;;2.80;2.60;;;20.40;59.30;;;;;;5062511;28;20032;-40
2022/09/21 05:06:12;;;;;;;2.92;2.72;;;20.30;59.30;;;;;;5044757;28;20048;-40
2022/09/21 05:11:23;;;;;;;2.90;2.70;;;20.20;59.20;;;;;;5063021;28;20089;-40
2022/09/21 05:13:49;;;;;;;3.03;2.83;;;20.20;59.30;;;;;;5057291;28;20029;-40
2022/09/21 05:16:16;;;;;;;3.28;3.08;;;20.20;59.40;;;;;;5042742;28;20051;-40
2022/09/21 05:18:42;;;;;;;3.08;2.78;;;20.20;59.40;;;;;;5054263;28;20048;-40
2022/09/21 05:21:09;;;;;;;3.50;3.25;;;20.10;59.40;;;;;;5062435;28;20401;-40
2022/09/21 05:23:35;;;;;;;2.75;2.55;;;20.10;59.40;;;;;;5044780;28;20021;-41
2022/09/21 05:26:01;;;;;;;3.30;3.10;;;20.00;59.50;;;;;;5062253;28;20048;-40
2022/09/21 05:28:27;;;;;;;2.90;2.70;;;20.00;59.50;;;;;;5062122;28;20025;-41
2022/09/21 05:30:56;;;;;;;3.40;3.10;;;20.00;59.60;;;;;;5062783;28;20025;-41
2022/09/21 05:33:23;;;;;;;3.20;2.97;;;20.10;59.60;;;;;;5061937;28;20072;-41
2022/09/21 05:36:26;;;;;;;3.33;3.13;;;20.00;59.60;;;;;;5034535;28;20067;-41
2022/09/21 05:38:52;;;;;;;3.45;3.25;;;20.00;59.70;;;;;;5055248;28;20029;-40
2022/09/21 05:41:19;;;;;;;3.00;2.80;;;20.00;60.00;;;;;;5062435;28;20097;-41
2022/09/21 05:43:45;;;;;;;2.90;2.70;;;20.00;60.20;;;;;;5057553;28;20097;-41
2022/09/21 05:46:32;;;;;;;3.05;2.85;;;20.00;60.60;;;;;;5057161;28;20021;-41
2022/09/21 05:49:00;;;;;;;2.95;2.75;;;20.00;61.00;;;;;;5062330;28;20097;-41
2022/09/21 05:51:56;;;;;;;2.85;2.65;;;20.00;61.20;;;;;;5062395;28;20025;-42
2022/09/21 05:54:56;;;;;;;2.45;2.30;;;20.00;61.60;;;;;;5028899;28;20033;-41
2022/09/21 05:57:33;;;;;;;2.72;2.53;;;19.90;61.90;;;;;;5007644;28;20029;-41
2022/09/21 06:00:19;;;;;;;2.80;2.60;;;19.90;62.20;;;;;;5043887;28;20036;-41
2022/09/21 06:02:54;;;;;;;2.40;2.20;;;19.90;62.60;;;;;;5043696;28;20033;-41
2022/09/21 06:05:21;;;;;;;2.40;2.20;;;19.90;62.80;;;;;;5062160;28;20052;-41
2022/09/21 06:07:47;;;;;;;2.40;2.20;;;19.90;63.00;;;;;;5062184;28;20189;-40
2022/09/21 06:10:13;;;;;;;2.22;2.13;;;19.90;63.20;;;;;;5071401;28;20029;-40
2022/09/21 06:12:40;;;;;;;2.10;2.00;;;19.90;63.40;;;;;;5082226;28;20040;-40
2022/09/21 06:15:07;;;;;;;2.17;2.00;;;19.90;63.60;;;;;;5066244;28;20052;-41
2022/09/21 06:17:33;;;;;;;1.92;1.83;;;19.90;63.90;;;;;;5045978;28;20033;-41
2022/09/21 06:20:01;;;;;;;1.95;1.85;;;19.90;64.00;;;;;;5045848;28;20021;-41
2022/09/21 06:22:27;;;;;;;1.90;1.80;;;20.00;64.20;;;;;;5045889;28;20052;-40
2022/09/21 06:24:53;;;;;;;1.95;1.75;;;19.90;64.30;;;;;;5064163;28;20025;-41
2022/09/21 06:27:20;;;;;;;1.95;1.85;;;20.00;64.50;;;;;;5076017;28;20029;-41
2022/09/21 06:29:46;;;;;;;1.73;1.63;;;20.00;64.70;;;;;;5085674;28;20020;-41
2022/09/21 06:32:12;;;;;;;1.83;1.73;;;20.00;64.80;;;;;;5085654;28;20136;-41
2022/09/21 06:34:38;;;;;;;1.58;1.48;;;20.00;64.90;;;;;;5085461;28;20036;-42
2022/09/21 06:37:04;;;;;;;1.75;1.65;;;20.00;65.00;;;;;;5085566;28;20036;-41
2022/09/21 06:39:30;;;;;;;1.80;1.70;;;20.00;65.10;;;;;;5071575;28;20028;-41
2022/09/21 06:41:58;;;;;;;1.50;1.40;;;20.00;65.10;;;;;;5065764;28;20033;-41
2022/09/21 06:44:24;;;;;;;;;;;20.00;65.90;;;;;;5056360;28;20049;-41
2022/09/21 06:46:50;;;;;;;1.50;1.40;;;20.00;65.20;;;;;;5065456;28;19905;-40
2022/09/21 06:49:16;;;;;;;1.60;1.50;;;20.00;65.30;;;;;;5065292;28;20103;-42
2022/09/21 06:51:42;;;;;;;1.65;1.55;;;20.00;65.40;;;;;;5065320;28;20055;-42
2022/09/21 06:54:08;;;;;;;1.58;1.48;;;20.00;65.50;;;;;;5064884;28;20048;-43
2022/09/21 06:56:34;;;;;;;1.30;1.20;;;20.00;65.60;;;;;;5045574;28;20468;-42
2022/09/21 06:59:00;;;;;;;1.70;1.60;;;20.00;65.60;;;;;;5045371;28;20115;-43
2022/09/21 07:01:27;;;;;;;1.30;1.20;;;20.00;65.70;;;;;;5057353;28;20052;-42
2022/09/21 07:03:53;;;;;;;1.30;1.20;;;20.00;65.70;;;;;;5064989;28;20033;-42
2022/09/21 07:06:19;;;;;;;1.25;1.15;;;20.00;65.70;;;;;;5065095;28;20077;-42
2022/09/21 07:08:46;;;;;;;0.95;0.95;;;20.00;65.70;;;;;;5064882;28;20037;-42
2022/09/21 07:11:12;;;;;;;;;;;20.00;66.50;;;;;;5065748;28;20041;-41
2022/09/21 07:13:39;;;;;;;1.35;1.25;;;20.10;65.80;;;;;;5061178;28;19935;-41
2022/09/21 07:16:06;;;;;;;1.30;1.20;;;20.10;66.00;;;;;;5045024;28;20052;-43
2022/09/21 07:18:33;;;;;;;1.27;1.17;;;20.10;66.00;;;;;;5059997;28;20669;-42
2022/09/21 07:21:09;;;;;;;0.95;0.95;;;20.10;66.10;;;;;;5064977;28;20677;-42
2022/09/21 07:23:35;;;;;;;0.95;0.95;;;20.10;66.10;;;;;;5065032;28;20044;-43
2022/09/21 07:26:09;;;;;;;1.30;1.20;;;20.10;66.10;;;;;;5064201;28;20032;-43
2022/09/21 07:28:35;;;;;;;1.30;1.20;;;20.10;66.10;;;;;;5064734;28;20044;-43
2022/09/21 07:31:14;;;;;;;1.10;1.10;;;20.10;66.20;;;;;;5064814;28;20397;-41
2022/09/21 07:33:41;;;;;;;1.15;1.08;;;20.10;66.10;;;;;;5078739;28;20055;-42
2022/09/21 07:36:11;;;;;;;1.00;1.00;;;20.20;66.20;;;;;;5084373;28;20055;-41
2022/09/21 07:38:38;;;;;;;1.40;1.30;;;20.20;66.30;;;;;;5084657;28;20033;-41
2022/09/21 07:41:06;;;;;;;1.17;1.10;;;20.20;66.40;;;;;;5084716;28;20049;-41
2022/09/21 07:43:32;;;;;;;;;;;20.20;66.50;;;;;;5082418;28;20028;-40
2022/09/21 07:46:00;;;;;;;1.08;0.98;;;20.20;66.40;;;;;;5077039;28;19934;-43
2022/09/21 07:48:27;;;;;;;2.88;1.60;;;20.20;66.50;;;;;;5084386;28;20032;-52
2022/09/21 07:50:56;;;;;;;2.47;2.28;;;20.20;66.50;;;;;;5084375;28;20598;-50
2022/09/21 07:53:22;;;;;;;4.82;2.72;;;20.20;66.50;;;;;;5097000;28;20045;-49
2022/09/21 07:55:48;;;;;;;4.85;2.75;;;20.20;67.00;;;;;;5069903;28;20084;-48
2022/09/21 08:01:05;;;;;;;11.85;3.50;;;20.30;68.00;;;;;;5064245;28;20054;-55
2022/09/21 08:03:31;;;;;;;6.43;3.35;;;20.30;68.60;;;;;;5062835;28;20024;-40
2022/09/21 08:05:59;;;;;;;4.32;3.47;;;20.30;69.00;;;;;;5087195;28;20040;-41
2022/09/21 08:08:25;;;;;;;4.47;3.90;;;20.30;68.50;;;;;;5101595;28;20115;-41
2022/09/21 08:10:52;;;;;;;6.25;4.50;;;20.30;68.00;;;;;;5099054;28;20037;-39
2022/09/21 08:13:18;;;;;;;13.00;4.82;;;20.30;67.60;;;;;;5082569;28;20097;-40
2022/09/21 08:15:46;;;;;;;12.48;5.10;;;20.30;67.60;;;;;;5076943;28;20098;-41
2022/09/21 08:18:12;;;;;;;8.02;4.68;;;20.40;67.90;;;;;;5080538;28;20043;-44
2022/09/21 08:20:38;;;;;;;8.68;4.78;;;20.40;68.00;;;;;;5083730;28;20032;-42
2022/09/21 08:23:04;;;;;;;12.77;4.60;;;20.40;68.20;;;;;;5083612;28;20043;-52
2022/09/21 08:25:31;;;;;;;9.15;4.68;;;20.40;68.40;;;;;;5080923;28;20126;-52
2022/09/21 08:27:59;;;;;;;7.78;4.35;;;20.50;68.40;;;;;;5083643;28;20123;-49
2022/09/21 08:30:27;;;;;;;7.88;5.00;;;20.50;68.40;;;;;;5083506;28;20028;-50
2022/09/21 08:32:54;;;;;;;6.55;4.85;;;20.50;68.30;;;;;;5071873;28;20048;-50
2022/09/21 08:35:20;;;;;;;6.53;5.10;;;20.50;68.20;;;;;;5063173;28;20025;-49
2022/09/21 08:37:46;;;;;;;6.75;5.15;;;20.50;68.00;;;;;;5062539;28;20025;-51
2022/09/21 08:40:15;;;;;;;6.38;5.25;;;20.60;68.00;;;;;;5054248;28;20037;-51
2022/09/21 08:42:58;;;;;;;7.28;5.55;;;20.60;67.80;;;;;;5063215;28;20025;-50
2022/09/21 08:45:26;;;;;;;6.57;4.90;;;20.60;67.60;;;;;;5027375;28;20037;-53
2022/09/21 08:47:59;;;;;;;6.50;5.35;;;20.60;67.50;;;;;;5029225;28;20079;-50
2022/09/21 08:50:38;;;;;;;5.95;5.07;;;20.60;67.40;;;;;;5061219;28;20036;-41
2022/09/21 08:53:43;;;;;;;6.00;5.40;;;20.60;67.40;;;;;;5044826;28;20505;-43
2022/09/21 08:56:13;;;;;;;6.43;4.85;;;20.60;67.20;;;;;;4961880;29;20095;-44
2022/09/21 08:58:40;;;;;;;6.18;4.90;;;20.60;67.10;;;;;;4961994;29;20043;-44
2022/09/21 09:01:28;;;;;;;6.97;4.90;;;20.60;67.00;;;;;;4962199;29;20031;-44
2022/09/21 09:04:21;;;;;;;5.75;5.03;;;20.70;67.00;;;;;;4961742;29;20099;-44
2022/09/21 09:07:05;;;;;;;5.72;4.50;;;20.70;66.90;;;;;;4961421;29;20046;-44
2022/09/21 09:09:39;;;;;;;5.25;4.60;;;20.70;66.80;;;;;;4962075;29;20032;-44
2022/09/21 09:12:33;;;;;;;6.70;4.78;;;20.70;66.70;;;;;;4945937;29;20634;-44
2022/09/21 09:15:29;;;;;;;6.38;4.80;;;20.70;66.70;;;;;;4961733;29;20063;-44
2022/09/21 09:18:08;;;;;;;5.43;4.93;;;20.70;66.60;;;;;;4972778;28;20031;-44
2022/09/21 09:21:03;;;;;;;5.85;4.63;;;20.70;66.50;;;;;;4927978;29;20059;-44
2022/09/21 09:23:36;;;;;;;6.80;4.75;;;20.70;66.50;;;;;;4920068;29;20055;-44
2022/09/21 09:26:05;;;;;;;5.00;4.47;;;20.70;66.50;;;;;;4961506;29;20619;-45
2022/09/21 09:28:37;;;;;;;5.70;4.90;;;20.70;66.40;;;;;;4945961;29;20042;-44
2022/09/21 09:31:18;;;;;;;5.28;4.68;;;20.70;66.40;;;;;;4961384;28;20083;-44
2022/09/21 09:34:15;;;;;;;5.07;4.50;;;20.80;66.40;;;;;;5064911;28;20057;-44
2022/09/21 09:36:46;;;;;;;5.50;4.32;;;20.80;66.40;;;;;;5081910;28;20029;-44
2022/09/21 09:39:13;;;;;;;5.72;4.70;;;20.80;66.40;;;;;;5073322;28;20075;-44
2022/09/21 09:41:45;;;;;;;5.15;4.22;;;20.80;66.40;;;;;;5082619;28;20055;-43
2022/09/21 09:44:37;;;;;;;5.00;4.53;;;20.80;66.40;;;;;;5081512;28;20028;-44
2022/09/21 09:47:29;;;;;;;4.88;4.40;;;20.80;66.40;;;;;;5080769;28;20042;-45
2022/09/21 09:50:18;;;;;;;5.55;4.35;;;20.80;66.30;;;;;;5063861;28;20111;-44
2022/09/21 09:52:45;;;;;;;5.05;4.25;;;20.80;66.20;;;;;;5066309;28;20028;-47
2022/09/21 09:55:18;;;;;;;4.57;4.18;;;20.80;66.10;;;;;;5065060;28;20029;-44
2022/09/21 09:57:45;;;;;;;4.80;4.05;;;20.80;66.10;;;;;;5064645;28;20036;-44
2022/09/21 10:00:15;;;;;;;4.70;4.28;;;20.80;66.10;;;;;;5064857;28;20025;-44
2022/09/21 10:02:49;;;;;;;5.00;4.15;;;20.80;66.00;;;;;;5048170;28;20474;-44
2022/09/21 10:05:36;;;;;;;5.38;4.47;;;20.80;66.00;;;;;;5066298;28;20033;-44
2022/09/21 10:08:02;;;;;;;5.22;4.70;;;20.80;65.90;;;;;;5067802;28;20158;-45
2022/09/21 10:10:31;;;;;;;5.15;4.63;;;20.80;65.90;;;;;;5086186;28;20029;-44
2022/09/21 10:13:22;;;;;;;4.53;4.13;;;20.80;65.90;;;;;;5085877;28;20131;-44
2022/09/21 10:15:56;;;;;;;6.60;4.60;;;20.80;65.80;;;;;;5077694;28;20036;-44
2022/09/21 10:18:36;;;;;;;4.97;4.20;;;20.80;65.70;;;;;;5085478;28;20541;-44
2022/09/21 10:21:07;;;;;;;5.60;4.00;;;20.80;65.70;;;;;;5084401;28;20024;-45
2022/09/21 10:23:33;;;;;;;4.55;4.15;;;20.80;65.70;;;;;;5084497;28;20101;-54
2022/09/21 10:26:05;;;;;;;4.60;4.20;;;20.80;65.70;;;;;;5084511;28;20052;-54
2022/09/21 10:28:31;;;;;;;5.68;4.18;;;20.80;65.70;;;;;;5084112;28;20028;-56
2022/09/21 10:31:10;;;;;;;4.78;4.38;;;20.80;65.70;;;;;;5085561;28;20702;-51
2022/09/21 10:33:47;;;;;;;5.13;4.60;;;20.80;65.70;;;;;;5068025;28;20076;-44
2022/09/21 10:36:34;;;;;;;4.60;4.20;;;20.80;65.90;;;;;;5048397;28;20501;-45
2022/09/21 10:39:20;;;;;;;4.80;4.40;;;20.80;66.00;;;;;;5056038;28;20025;-44
2022/09/21 10:42:00;;;;;;;5.10;4.60;;;20.80;66.00;;;;;;5065274;28;20112;-46
2022/09/21 10:44:32;;;;;;;5.50;4.78;;;20.90;66.00;;;;;;5048333;28;20552;-45
2022/09/21 10:47:00;;;;;;;5.15;4.75;;;20.80;65.80;;;;;;5047993;28;20032;-46
2022/09/21 10:49:27;;;;;;;4.70;4.30;;;20.80;65.80;;;;;;5029810;28;20025;-46
2022/09/21 10:51:56;;;;;;;5.53;4.85;;;20.80;65.80;;;;;;5056807;28;20033;-44
2022/09/21 10:54:30;;;;;;;4.93;4.50;;;20.90;65.80;;;;;;5063022;28;20083;-44
2022/09/21 10:57:06;;;;;;;5.22;4.72;;;20.90;65.80;;;;;;5045175;28;20493;-43
2022/09/21 10:59:34;;;;;;;5.65;4.60;;;20.90;65.80;;;;;;5044515;28;20059;-44
2022/09/21 11:02:01;;;;;;;5.75;5.10;;;20.90;65.70;;;;;;5026903;28;20033;-45
2022/09/21 11:04:42;;;;;;;5.47;4.60;;;20.80;65.70;;;;;;5027369;28;20029;-43
2022/09/21 11:07:31;;;;;;;4.50;4.10;;;20.90;65.70;;;;;;5026898;28;20036;-43
2022/09/21 11:10:09;;;;;;;5.28;4.63;;;20.90;65.70;;;;;;5062689;28;20031;-43
2022/09/21 11:12:41;;;;;;;5.20;4.43;;;20.80;66.30;;;;;;5030893;28;20098;-43
2022/09/21 11:15:23;;;;;;;4.43;4.10;;;20.80;65.60;;;;;;5050152;28;20048;-44
2022/09/21 11:17:58;;;;;;;4.75;4.35;;;20.90;65.60;;;;;;5048717;28;20033;-43
2022/09/21 11:20:24;;;;;;;4.97;4.53;;;20.90;65.60;;;;;;5046571;28;20025;-43
2022/09/21 11:23:11;;;;;;;5.13;4.63;;;20.90;65.50;;;;;;5064557;28;20116;-43
2022/09/21 11:25:52;;;;;;;4.75;4.35;;;20.90;65.50;;;;;;5064652;28;20052;-44
2022/09/21 11:28:38;;;;;;;4.63;4.22;;;20.90;65.50;;;;;;5046355;28;20733;-45
2022/09/21 11:31:22;;;;;;;4.90;4.47;;;20.80;65.50;;;;;;5064417;28;20093;-44
2022/09/21 11:33:55;;;;;;;5.45;4.93;;;20.90;65.50;;;;;;5064080;28;20124;-45
2022/09/21 11:36:29;;;;;;;4.78;4.38;;;20.90;65.50;;;;;;5046319;28;20036;-45
2022/09/21 11:38:58;;;;;;;4.88;4.47;;;20.90;65.40;;;;;;5036892;28;20033;-45
2022/09/21 11:42:06;;;;;;;5.03;4.40;;;20.80;65.50;;;;;;5048926;28;20021;-45
2022/09/21 11:44:49;;;;;;;5.00;4.60;;;20.90;65.40;;;;;;5020298;28;20575;-45
2022/09/21 11:47:25;;;;;;;4.53;4.13;;;20.80;65.40;;;;;;5044061;28;20776;-45
2022/09/21 11:50:14;;;;;;;4.75;4.30;;;20.90;65.40;;;;;;5043918;28;20037;-46
2022/09/21 11:53:05;;;;;;;5.30;4.80;;;20.90;65.40;;;;;;5026178;28;20037;-46
2022/09/21 11:55:49;;;;;;;5.28;4.78;;;20.90;65.40;;;;;;5055855;28;20045;-46
2022/09/21 11:58:42;;;;;;;4.90;4.50;;;20.80;65.30;;;;;;5064267;28;20033;-45
2022/09/21 12:01:22;;;;;;;4.93;4.53;;;20.80;65.30;;;;;;5063918;28;20033;-47
2022/09/21 12:04:14;;;;;;;4.68;4.22;;;20.90;65.40;;;;;;5030645;28;20532;-45
2022/09/21 12:06:52;;;;;;;4.70;4.30;;;20.80;65.30;;;;;;5063733;28;20025;-45
2022/09/21 12:09:51;;;;;;;4.90;4.50;;;20.80;65.30;;;;;;5051068;28;20052;-45
2022/09/21 12:12:38;;;;;;;5.00;4.20;;;20.80;65.30;;;;;;5041461;28;20052;-45
2022/09/21 12:15:31;;;;;;;4.90;4.50;;;20.80;65.30;;;;;;5050124;28;20033;-45
2022/09/21 12:18:09;;;;;;;5.15;4.75;;;20.80;65.30;;;;;;5041374;28;20025;-45
2022/09/21 12:20:47;;;;;;;4.65;4.25;;;20.80;65.30;;;;;;5062786;28;20083;-44
2022/09/21 12:23:37;;;;;;;5.25;4.85;;;20.80;65.30;;;;;;5025094;28;20087;-45
2022/09/21 12:26:04;;;;;;;4.90;4.50;;;20.80;65.30;;;;;;5044364;28;20033;-45
2022/09/21 12:28:36;;;;;;;5.30;4.90;;;20.80;65.30;;;;;;5045435;28;20029;-45
2022/09/21 12:31:05;;;;;;;4.65;4.25;;;20.80;65.30;;;;;;5062905;28;20047;-47
2022/09/21 12:33:34;;;;;;;4.90;4.50;;;20.80;65.30;;;;;;5070433;28;20059;-45
2022/09/21 12:36:24;;;;;;;5.15;4.35;;;20.80;65.20;;;;;;5083216;28;20033;-45
2022/09/21 12:38:51;;;;;;;5.40;4.28;;;20.80;65.30;;;;;;5047900;28;20033;-45
2022/09/21 12:41:30;;;;;;;4.68;4.28;;;20.80;65.20;;;;;;5082375;28;20523;-46
2022/09/21 12:44:05;;;;;;;5.38;4.38;;;20.80;65.30;;;;;;5076781;28;20040;-45
2022/09/21 12:46:36;;;;;;;4.80;4.40;;;20.80;65.30;;;;;;5069794;28;20020;-45
2022/09/21 12:49:13;;;;;;;4.60;4.25;;;20.80;65.30;;;;;;5081428;28;20024;-45
2022/09/21 12:51:49;;;;;;;5.00;4.60;;;20.80;65.30;;;;;;5081321;28;20032;-44
2022/09/21 12:54:30;;;;;;;4.60;4.20;;;20.80;65.30;;;;;;5052883;28;20048;-46
2022/09/21 12:57:23;;;;;;;4.60;4.20;;;20.80;65.20;;;;;;5083051;28;20485;-45
2022/09/21 13:00:17;;;;;;;4.88;4.47;;;20.80;65.20;;;;;;5080983;28;20028;-45
2022/09/21 13:03:00;;;;;;;4.50;4.10;;;20.80;65.20;;;;;;5081373;28;20621;-44
2022/09/21 13:05:26;;;;;;;4.40;4.00;;;20.80;65.20;;;;;;5082658;28;20020;-45
2022/09/21 13:08:14;;;;;;;5.30;4.80;;;20.80;65.30;;;;;;5082578;28;20021;-45
2022/09/21 13:10:44;;;;;;;4.65;4.25;;;20.80;65.20;;;;;;5082346;28;20016;-45
2022/09/21 13:13:32;;;;;;;4.60;4.20;;;20.80;65.20;;;;;;5082506;28;20040;-45
2022/09/21 13:15:58;;;;;;;4.45;4.10;;;20.80;65.20;;;;;;5062583;28;20075;-45
2022/09/21 13:18:27;;;;;;;4.83;4.43;;;20.80;65.20;;;;;;5070274;28;20416;-46
2022/09/21 13:20:54;;;;;;;4.70;4.30;;;20.80;65.20;;;;;;5082206;28;20028;-46